Αρχική σελίδα
METAR-TAF:

METAR-TAF

Αεροδρόμια :

Palo Alto Airport of Santa Clara County

Palo Alto, Καλιφόρνια, Ηνωμένες Πολιτείες Αμερικής

γεωγραφικό πλάτος: 37-28N, γεωγραφικό μήκος: 122-07W, υψόμετρο: 2 μ

Παρών καιρός

Η αναφορά έγινε 17 λεπτά πριν, στις 23:47 UTC
Άνεμος 12 kt από Β/BΔ με ριπές μέχρι 22 kt
Θερμοκρασία 23°C
Υγρασία 69%
Πίεση 1018 hPa
Ορατότητα: 16.1 χλμ
Καθαρός ουρανός

METAR: KPAO 222347Z 34012G22KT 10SM SKC 23/17 A3005

Χρόνος: 17:04 (00:04 UTC)


TAF: λείπει

Μετεωρολογικές αναφορές και προγνώσεις για περισσότερα από 4000 αεροδρόμια (δελτία METAR και TAF).

Οι διαθέσιμοι σταθμοί απεικονίζονται στο χάρτη με κίτρινες και κόκκινες κουκκίδες.

Μετακινήστε το ποντίκι πάνω από τις κουκκίδες για να δείτε το όνομα του σταθμού.

Στη συνέχεια, κάντε κλικ για να δείτε τις μετεωρολογικές αναφορές και τις προγνώσεις καιρού.

Για να αλλάξετε το χάρτη: κάντε κλικ στα πράσινα κουμπιά με τον μαύρο σταυρό για να ζουμάρετε, στο πράσινο κουμπί με την παύλα για να αφαιρέσετε το ζουμ ή στα πράσινα βέλη για να αντιπαραβάλλετε χάρτες.


METAR-TAF: